Time;durP1;ratioP1;P1;durP2;ratioP2;P2;SDS_P1;SDS_P2;PMS_P1;PMS_P2;Temp;Humidity;BMP_temperature;BMP_pressure;BME280_temperature;BME280_humidity;BME280_pressure;Samples;Min_cycle;Max_cycle;Signal;HPM_P1;HPM_P2
2022/01/02 00:01:19;;;;;;;11.10;5.57;;;;;;;;;;5049408;28;20029;-74
2022/01/02 00:03:45;;;;;;;10.77;5.15;;;;;;;;;;5050132;28;20110;-74
2022/01/02 00:06:13;;;;;;;8.55;5.75;;;;;;;;;;5051600;28;20033;-75
2022/01/02 00:08:42;;;;;;;9.40;5.40;;;;;;;;;;5050792;28;20041;-76
2022/01/02 00:11:11;;;;;;;9.55;5.75;;;;;;;;;;5050246;28;20410;-75
2022/01/02 00:13:39;;;;;;;10.75;5.80;;;;;;;;;;5049145;28;20045;-76
2022/01/02 00:16:07;;;;;;;10.73;5.82;;;;;;;;;;5051956;28;20041;-75
2022/01/02 00:18:40;;;;;;;12.20;5.78;;;;;;;;;;5052081;28;20040;-75
2022/01/02 00:21:07;;;;;;;11.60;6.15;;;;;;;;;;5049267;28;20044;-75
2022/01/02 00:26:39;;;;;;;8.70;5.93;;;;;;;;;;5033916;28;20382;-74
2022/01/02 00:29:05;;;;;;;11.23;6.63;;;;;;;;;;5051479;28;20494;-74
2022/01/02 00:31:32;;;;;;;11.27;6.32;;;;;;;;;;5045002;28;20160;-74
2022/01/02 00:33:59;;;;;;;12.52;6.35;;;;;;;;;;5050634;28;20041;-73
2022/01/02 00:36:25;;;;;;;9.90;6.18;;;;;;;;;;5050896;28;20125;-73
2022/01/02 00:38:51;;;;;;;10.77;6.05;;;;;;;;;;5050753;28;20111;-74
2022/01/02 00:41:22;;;;;;;11.65;6.00;;;;;;;;;;5049960;28;20036;-75
2022/01/02 00:43:52;;;;;;;10.48;5.90;;;;;;;;;;5050285;28;20120;-75
2022/01/02 00:46:19;;;;;;;12.38;6.22;;;;;;;;;;5050843;28;20069;-75
2022/01/02 00:48:47;;;;;;;10.65;5.95;;;;;;;;;;5050830;28;20044;-75
2022/01/02 00:51:27;;;;;;;11.88;5.93;;;;;;;;;;5050769;28;20036;-74
2022/01/02 00:53:57;;;;;;;9.73;5.70;;;;;;;;;;5049226;28;20521;-74
2022/01/02 00:56:27;;;;;;;15.20;6.32;;;;;;;;;;5049932;28;20491;-73
2022/01/02 00:58:57;;;;;;;10.05;5.72;;;;;;;;;;5051470;28;20044;-73
2022/01/02 01:01:24;;;;;;;10.93;6.13;;;;;;;;;;5048077;28;20033;-73
2022/01/02 01:03:52;;;;;;;11.48;6.13;;;;;;;;;;5050473;28;20491;-74
2022/01/02 01:06:21;;;;;;;10.13;5.65;;;;;;;;;;5051080;28;20044;-75
2022/01/02 01:08:47;;;;;;;13.15;6.57;;;;;;;;;;5050487;28;20033;-75
2022/01/02 01:11:14;;;;;;;10.73;6.35;;;;;;;;;;5048847;28;20102;-75
2022/01/02 01:13:40;;;;;;;13.15;6.45;;;;;;;;;;5049804;28;20087;-75
2022/01/02 01:16:06;;;;;;;12.05;5.82;;;;;;;;;;5050594;28;20044;-75
2022/01/02 01:18:32;;;;;;;12.93;6.72;;;;;;;;;;5051322;28;20037;-75
2022/01/02 01:20:58;;;;;;;14.27;6.43;;;;;;;;;;5050438;28;21382;-74
2022/01/02 01:23:24;;;;;;;11.75;6.25;;;;;;;;;;5049669;28;20037;-74
2022/01/02 01:25:50;;;;;;;12.07;5.75;;;;;;;;;;5049743;28;20040;-74
2022/01/02 01:28:17;;;;;;;12.05;6.50;;;;;;;;;;5050829;28;20041;-74
2022/01/02 01:30:43;;;;;;;14.50;6.43;;;;;;;;;;5049375;28;20041;-73
2022/01/02 01:33:09;;;;;;;12.52;6.35;;;;;;;;;;5052532;28;20108;-74
2022/01/02 01:35:35;;;;;;;12.68;6.07;;;;;;;;;;5054076;28;20107;-74
2022/01/02 01:38:02;;;;;;;11.27;6.60;;;;;;;;;;5054294;28;20413;-73
2022/01/02 01:40:30;;;;;;;11.15;6.13;;;;;;;;;;5054288;28;20499;-74
2022/01/02 01:43:01;;;;;;;12.88;6.70;;;;;;;;;;5047726;28;20037;-74
2022/01/02 01:45:30;;;;;;;;;;;;;;;;;;5055220;28;20125;-74
2022/01/02 01:47:59;;;;;;;15.48;6.15;;;;;;;;;;5054702;28;19923;-74
2022/01/02 01:50:26;;;;;;;12.50;6.50;;;;;;;;;;5054373;28;20445;-74
2022/01/02 01:52:53;;;;;;;13.00;6.43;;;;;;;;;;5050084;28;20041;-74
2022/01/02 01:55:19;;;;;;;12.82;6.80;;;;;;;;;;5053806;28;20053;-74
2022/01/02 01:57:45;;;;;;;14.80;6.55;;;;;;;;;;5052075;28;20060;-74
2022/01/02 02:00:13;;;;;;;13.02;6.85;;;;;;;;;;5047165;28;20429;-74
2022/01/02 02:02:40;;;;;;;10.98;6.03;;;;;;;;;;5051079;28;20112;-74
2022/01/02 02:05:06;;;;;;;13.35;6.00;;;;;;;;;;5053059;28;20037;-74
2022/01/02 02:07:39;;;;;;;13.18;6.75;;;;;;;;;;5045631;28;20095;-75
2022/01/02 02:10:18;;;;;;;13.30;6.57;;;;;;;;;;5052469;28;20119;-74
2022/01/02 02:12:45;;;;;;;12.98;7.10;;;;;;;;;;5047532;28;20502;-74
2022/01/02 02:15:12;;;;;;;14.30;6.20;;;;;;;;;;5053669;28;20427;-74
2022/01/02 02:17:39;;;;;;;14.30;7.10;;;;;;;;;;5051676;28;20413;-74
2022/01/02 02:20:23;;;;;;;13.38;6.35;;;;;;;;;;5048701;28;20108;-74
2022/01/02 02:22:52;;;;;;;17.50;7.43;;;;;;;;;;5046790;28;20513;-74
2022/01/02 02:25:20;;;;;;;15.07;6.50;;;;;;;;;;5052421;28;20041;-74
2022/01/02 02:28:03;;;;;;;16.70;6.90;;;;;;;;;;5054085;28;20425;-74
2022/01/02 02:30:31;;;;;;;12.88;6.13;;;;;;;;;;5052659;28;20048;-74
2022/01/02 02:32:57;;;;;;;14.75;6.75;;;;;;;;;;5049687;28;20025;-73
2022/01/02 02:35:24;;;;;;;11.82;5.82;;;;;;;;;;5053135;28;20037;-74
2022/01/02 02:37:50;;;;;;;12.82;6.95;;;;;;;;;;5051705;28;20040;-74
2022/01/02 02:40:17;;;;;;;12.57;6.80;;;;;;;;;;5051645;28;20112;-74
2022/01/02 02:51:11;;;;;;;13.02;6.65;;;;;;;;;;5048722;28;20087;-74
2022/01/02 02:53:42;;;;;;;13.68;7.30;;;;;;;;;;5048886;28;20041;-73
2022/01/02 02:58:44;;;;;;;14.18;7.32;;;;;;;;;;5049365;28;20041;-74
2022/01/02 03:01:11;;;;;;;14.68;6.65;;;;;;;;;;5049938;28;20044;-74
2022/01/02 03:03:38;;;;;;;15.25;7.13;;;;;;;;;;5050350;28;20045;-74
2022/01/02 03:06:04;;;;;;;14.18;7.05;;;;;;;;;;5050903;28;20120;-74
2022/01/02 03:08:30;;;;;;;18.15;7.28;;;;;;;;;;5050860;28;20510;-74
2022/01/02 03:10:56;;;;;;;13.85;6.53;;;;;;;;;;5052258;28;20052;-74
2022/01/02 03:13:23;;;;;;;13.48;7.32;;;;;;;;;;5051467;28;20099;-74
2022/01/02 03:15:49;;;;;;;14.40;6.70;;;;;;;;;;5052062;28;20521;-74
2022/01/02 03:18:15;;;;;;;13.50;6.45;;;;;;;;;;5051931;28;20037;-75
2022/01/02 03:20:41;;;;;;;13.35;6.25;;;;;;;;;;5051988;28;20060;-74
2022/01/02 03:23:07;;;;;;;14.15;7.10;;;;;;;;;;5048545;28;20041;-74
2022/01/02 03:25:33;;;;;;;13.57;6.90;;;;;;;;;;5058639;28;20032;-74
2022/01/02 03:27:59;;;;;;;15.20;7.13;;;;;;;;;;5073122;28;20063;-74
2022/01/02 03:30:25;;;;;;;13.35;7.25;;;;;;;;;;5066600;28;20029;-74
2022/01/02 03:32:51;;;;;;;16.30;7.50;;;;;;;;;;5049017;28;20098;-74
2022/01/02 03:35:17;;;;;;;14.13;7.00;;;;;;;;;;5051900;28;20037;-74
2022/01/02 03:37:43;;;;;;;16.38;6.90;;;;;;;;;;5052672;28;20033;-74
2022/01/02 03:40:10;;;;;;;15.82;6.65;;;;;;;;;;5052616;28;20122;-74
2022/01/02 03:42:37;;;;;;;12.70;6.25;;;;;;;;;;5048894;28;20044;-74
2022/01/02 03:45:04;;;;;;;15.45;6.47;;;;;;;;;;5051798;28;20068;-74
2022/01/02 03:47:30;;;;;;;16.40;7.40;;;;;;;;;;5051853;28;20029;-75
2022/01/02 03:49:57;;;;;;;14.18;6.85;;;;;;;;;;5052136;28;20048;-74
2022/01/02 03:52:23;;;;;;;12.50;6.18;;;;;;;;;;5049638;28;20506;-74
2022/01/02 03:54:49;;;;;;;16.65;7.00;;;;;;;;;;5050603;28;20467;-74
2022/01/02 03:57:15;;;;;;;14.15;6.90;;;;;;;;;;5052402;28;20068;-74
2022/01/02 03:59:41;;;;;;;17.10;7.13;;;;;;;;;;5052066;28;20041;-74
2022/01/02 04:02:07;;;;;;;15.38;6.35;;;;;;;;;;5047657;28;20211;-75
2022/01/02 04:04:33;;;;;;;18.75;6.35;;;;;;;;;;5051237;28;20071;-75
2022/01/02 04:06:59;;;;;;;13.20;6.40;;;;;;;;;;5051545;28;20048;-74
2022/01/02 04:09:25;;;;;;;16.13;6.40;;;;;;;;;;5051735;28;20040;-74
2022/01/02 04:11:51;;;;;;;13.18;6.00;;;;;;;;;;5049300;28;20127;-74
2022/01/02 04:14:17;;;;;;;17.13;6.18;;;;;;;;;;5051691;28;20041;-74
2022/01/02 04:16:43;;;;;;;13.75;6.50;;;;;;;;;;5052075;28;20115;-74
2022/01/02 04:19:09;;;;;;;12.27;6.28;;;;;;;;;;5051704;28;20048;-74
2022/01/02 04:21:35;;;;;;;14.73;6.30;;;;;;;;;;5049831;28;20029;-74
2022/01/02 04:24:01;;;;;;;14.88;6.60;;;;;;;;;;5051122;28;20040;-74
2022/01/02 04:26:27;;;;;;;17.08;6.78;;;;;;;;;;5051404;28;20392;-75
2022/01/02 04:28:53;;;;;;;17.70;6.80;;;;;;;;;;5048530;28;20072;-74
2022/01/02 04:31:19;;;;;;;15.77;7.03;;;;;;;;;;5050610;28;20076;-74
2022/01/02 04:33:45;;;;;;;14.13;5.93;;;;;;;;;;5049461;28;20040;-74
2022/01/02 04:36:11;;;;;;;11.98;5.88;;;;;;;;;;5050851;28;20478;-74
2022/01/02 04:38:37;;;;;;;17.50;5.82;;;;;;;;;;5051143;28;20037;-74
2022/01/02 04:41:03;;;;;;;21.63;6.68;;;;;;;;;;5050669;28;20458;-74
2022/01/02 04:43:30;;;;;;;17.67;6.88;;;;;;;;;;5050010;28;20036;-74
2022/01/02 04:45:56;;;;;;;13.35;6.20;;;;;;;;;;5050656;28;20036;-74
2022/01/02 04:48:22;;;;;;;13.15;6.22;;;;;;;;;;5048432;28;20048;-74
2022/01/02 04:50:48;;;;;;;17.65;6.43;;;;;;;;;;5050403;28;20041;-74
2022/01/02 04:53:14;;;;;;;15.02;6.50;;;;;;;;;;5059414;22;20045;-66
2022/01/02 04:55:40;;;;;;;17.02;6.00;;;;;;;;;;5046694;28;20065;-66
2022/01/02 04:58:06;;;;;;;18.80;6.38;;;;;;;;;;5050841;28;20092;-66
2022/01/02 05:00:33;;;;;;;15.25;5.60;;;;;;;;;;5042415;28;20037;-65
2022/01/02 05:02:59;;;;;;;13.77;6.22;;;;;;;;;;5034448;28;20088;-65
2022/01/02 05:05:25;;;;;;;14.18;5.38;;;;;;;;;;5028355;28;20059;-65
2022/01/02 05:07:51;;;;;;;11.25;5.72;;;;;;;;;;5032786;28;20045;-65
2022/01/02 05:10:17;;;;;;;12.02;5.55;;;;;;;;;;5035528;28;20033;-65
2022/01/02 05:12:43;;;;;;;12.52;5.32;;;;;;;;;;5031300;28;20033;-65
2022/01/02 05:15:09;;;;;;;16.20;5.57;;;;;;;;;;5031533;28;20045;-65
2022/01/02 05:17:35;;;;;;;13.00;4.78;;;;;;;;;;5033961;28;20046;-66
2022/01/02 05:20:01;;;;;;;15.82;5.20;;;;;;;;;;5035335;28;20037;-66
2022/01/02 05:22:27;;;;;;;19.00;5.22;;;;;;;;;;5029564;28;20073;-67
2022/01/02 05:24:53;;;;;;;17.58;5.68;;;;;;;;;;5030642;28;20490;-66
2022/01/02 05:27:19;;;;;;;15.02;5.55;;;;;;;;;;5032428;28;20056;-66
2022/01/02 05:29:45;;;;;;;14.60;4.97;;;;;;;;;;5033294;28;20045;-65
2022/01/02 05:32:11;;;;;;;20.58;5.40;;;;;;;;;;5024876;28;20044;-66
2022/01/02 05:34:37;;;;;;;11.57;4.50;;;;;;;;;;5034689;28;20041;-66
2022/01/02 05:37:03;;;;;;;14.23;5.00;;;;;;;;;;5032507;28;20061;-66
2022/01/02 05:39:30;;;;;;;10.65;4.05;;;;;;;;;;5031982;28;20042;-66
2022/01/02 05:41:56;;;;;;;15.15;4.00;;;;;;;;;;5033097;28;20414;-66
2022/01/02 05:44:22;;;;;;;14.90;4.50;;;;;;;;;;5033247;28;20064;-65
2022/01/02 05:46:48;;;;;;;17.10;4.32;;;;;;;;;;5034972;28;20080;-65
2022/01/02 05:49:14;;;;;;;13.25;4.78;;;;;;;;;;5034540;28;20120;-66
2022/01/02 05:51:41;;;;;;;16.35;4.32;;;;;;;;;;5029909;28;20061;-65
2022/01/02 05:54:07;;;;;;;15.75;3.95;;;;;;;;;;5025890;28;20452;-66
2022/01/02 05:56:33;;;;;;;13.20;4.15;;;;;;;;;;5033992;28;20038;-66
2022/01/02 05:58:59;;;;;;;10.88;4.03;;;;;;;;;;5033932;28;20037;-66
2022/01/02 06:01:25;;;;;;;13.85;4.47;;;;;;;;;;5031490;28;20486;-65
2022/01/02 06:03:51;;;;;;;9.13;3.60;;;;;;;;;;5025973;28;20045;-66
2022/01/02 06:06:17;;;;;;;14.68;4.10;;;;;;;;;;5034506;28;20052;-66
2022/01/02 06:08:44;;;;;;;11.48;3.78;;;;;;;;;;5033952;28;20041;-66
2022/01/02 06:11:10;;;;;;;14.02;3.88;;;;;;;;;;5033109;28;20033;-66
2022/01/02 06:13:36;;;;;;;13.50;3.78;;;;;;;;;;5030826;28;20051;-66
2022/01/02 06:16:02;;;;;;;12.93;3.78;;;;;;;;;;5033137;28;20042;-66
2022/01/02 06:18:28;;;;;;;12.32;3.85;;;;;;;;;;5033377;28;20041;-66
2022/01/02 06:20:54;;;;;;;11.10;3.80;;;;;;;;;;5032898;28;20026;-66
2022/01/02 06:23:20;;;;;;;9.93;3.80;;;;;;;;;;5032697;28;20033;-65
2022/01/02 06:25:46;;;;;;;14.15;4.20;;;;;;;;;;5033073;28;20037;-66
2022/01/02 06:28:13;;;;;;;11.20;3.15;;;;;;;;;;5033500;28;20430;-66
2022/01/02 06:30:39;;;;;;;15.15;3.88;;;;;;;;;;5033360;28;20091;-66
2022/01/02 06:33:05;;;;;;;10.73;3.35;;;;;;;;;;5027206;28;20029;-66
2022/01/02 06:35:32;;;;;;;14.63;4.07;;;;;;;;;;5016900;28;20125;-66
2022/01/02 06:37:59;;;;;;;11.15;4.72;;;;;;;;;;5014332;28;20129;-66
2022/01/02 06:40:25;;;;;;;12.05;4.25;;;;;;;;;;5019558;28;20549;-66
2022/01/02 06:42:51;;;;;;;12.20;4.20;;;;;;;;;;5026961;28;20095;-66
2022/01/02 06:45:17;;;;;;;14.32;4.13;;;;;;;;;;5032918;28;20037;-66
2022/01/02 06:47:44;;;;;;;11.75;3.40;;;;;;;;;;5033249;28;20037;-66
2022/01/02 06:50:11;;;;;;;12.25;3.78;;;;;;;;;;5033716;28;20041;-66
2022/01/02 06:52:37;;;;;;;12.48;4.20;;;;;;;;;;5031044;28;20045;-66
2022/01/02 06:55:03;;;;;;;9.55;3.85;;;;;;;;;;5032574;28;20441;-66
2022/01/02 06:57:29;;;;;;;8.63;3.85;;;;;;;;;;5033598;28;20102;-66
2022/01/02 06:59:55;;;;;;;11.02;3.78;;;;;;;;;;5032823;28;20120;-66
2022/01/02 07:02:21;;;;;;;14.60;4.40;;;;;;;;;;5028655;28;20399;-66
2022/01/02 07:04:47;;;;;;;10.15;4.13;;;;;;;;;;5032523;28;20142;-65
2022/01/02 07:07:13;;;;;;;11.63;4.20;;;;;;;;;;5031837;28;20038;-65
2022/01/02 07:09:39;;;;;;;13.23;4.13;;;;;;;;;;5033294;28;20042;-65
2022/01/02 07:12:05;;;;;;;9.48;4.32;;;;;;;;;;5029268;28;20042;-66
2022/01/02 07:14:32;;;;;;;7.68;3.95;;;;;;;;;;5028442;28;20495;-66
2022/01/02 07:16:58;;;;;;;9.90;4.00;;;;;;;;;;5033035;28;20045;-66
2022/01/02 07:19:25;;;;;;;10.77;4.57;;;;;;;;;;5032996;28;20033;-66
2022/01/02 07:21:51;;;;;;;11.52;4.30;;;;;;;;;;5027795;28;20053;-66
2022/01/02 07:24:17;;;;;;;11.18;4.80;;;;;;;;;;5031959;28;20036;-66
2022/01/02 07:26:43;;;;;;;14.73;4.53;;;;;;;;;;5032087;28;20040;-66
2022/01/02 07:29:10;;;;;;;11.15;4.05;;;;;;;;;;5031918;28;20037;-66
2022/01/02 07:31:36;;;;;;;8.70;4.18;;;;;;;;;;5030693;28;20066;-65
2022/01/02 07:34:03;;;;;;;13.32;4.60;;;;;;;;;;5028554;28;20491;-65
2022/01/02 07:36:28;;;;;;;15.15;5.07;;;;;;;;;;5029654;28;20050;-66
2022/01/02 07:38:55;;;;;;;9.73;4.60;;;;;;;;;;5029691;28;20103;-65
2022/01/02 07:41:21;;;;;;;10.27;4.40;;;;;;;;;;5029025;28;20041;-65
2022/01/02 07:43:47;;;;;;;12.60;4.55;;;;;;;;;;5029659;28;20514;-65
2022/01/02 07:46:13;;;;;;;11.07;4.80;;;;;;;;;;5025150;28;20061;-65
2022/01/02 07:48:39;;;;;;;10.32;4.57;;;;;;;;;;5032249;28;20041;-65
2022/01/02 07:51:05;;;;;;;8.95;4.10;;;;;;;;;;5029346;28;20037;-66
2022/01/02 07:53:31;;;;;;;10.55;5.15;;;;;;;;;;5029402;28;20045;-66
2022/01/02 07:55:57;;;;;;;12.25;5.30;;;;;;;;;;5030392;28;20402;-65
2022/01/02 07:58:23;;;;;;;8.93;4.38;;;;;;;;;;5028909;28;20033;-66
2022/01/02 08:00:50;;;;;;;13.65;4.88;;;;;;;;;;5029700;28;20037;-66
2022/01/02 08:03:16;;;;;;;11.35;4.63;;;;;;;;;;5030523;28;20037;-66
2022/01/02 08:05:42;;;;;;;13.68;4.93;;;;;;;;;;5030905;28;20412;-66
2022/01/02 08:08:08;;;;;;;11.32;4.38;;;;;;;;;;5030643;28;20038;-67
2022/01/02 08:10:34;;;;;;;13.63;4.40;;;;;;;;;;5031810;28;20040;-66
2022/01/02 08:13:00;;;;;;;9.35;4.10;;;;;;;;;;5029810;28;20040;-66
2022/01/02 08:15:26;;;;;;;9.98;4.38;;;;;;;;;;5030371;28;20495;-68
2022/01/02 08:17:52;;;;;;;8.48;3.63;;;;;;;;;;5031896;28;20052;-66
2022/01/02 08:20:18;;;;;;;10.27;4.45;;;;;;;;;;5031682;28;20111;-67
2022/01/02 08:22:43;;;;;;;11.88;4.32;;;;;;;;;;5027957;28;20056;-67
2022/01/02 08:25:10;;;;;;;13.57;5.15;;;;;;;;;;5026021;28;20414;-67
2022/01/02 08:27:36;;;;;;;11.68;4.28;;;;;;;;;;5026974;28;20044;-67
2022/01/02 08:30:02;;;;;;;8.30;4.10;;;;;;;;;;5022368;28;20029;-67
2022/01/02 08:32:28;;;;;;;11.10;4.40;;;;;;;;;;5027609;28;20036;-68
2022/01/02 08:34:54;;;;;;;11.55;4.45;;;;;;;;;;5026558;28;20474;-67
2022/01/02 08:37:20;;;;;;;10.85;4.68;;;;;;;;;;5030648;28;20068;-67
2022/01/02 08:39:46;;;;;;;10.93;4.32;;;;;;;;;;5023163;28;20033;-67
2022/01/02 08:42:13;;;;;;;10.85;3.95;;;;;;;;;;5026952;28;20033;-66
2022/01/02 08:44:41;;;;;;;11.95;4.47;;;;;;;;;;5029621;28;20037;-67
2022/01/02 08:47:08;;;;;;;7.68;3.38;;;;;;;;;;5030916;28;20033;-67
2022/01/02 08:49:34;;;;;;;11.65;4.32;;;;;;;;;;5028792;28;20030;-68
2022/01/02 08:52:00;;;;;;;12.77;4.28;;;;;;;;;;5029421;28;20075;-67
2022/01/02 08:54:26;;;;;;;8.65;3.88;;;;;;;;;;5018154;28;20045;-66
2022/01/02 08:56:52;;;;;;;12.65;3.92;;;;;;;;;;5026540;28;20052;-66
2022/01/02 08:59:24;;;;;;;10.93;4.00;;;;;;;;;;5025976;28;20033;-66
2022/01/02 09:01:50;;;;;;;10.38;3.88;;;;;;;;;;5025544;28;20408;-66
2022/01/02 09:04:16;;;;;;;8.60;3.92;;;;;;;;;;5028375;28;20407;-65
2022/01/02 09:06:42;;;;;;;8.73;3.63;;;;;;;;;;5030212;28;20048;-66
2022/01/02 09:09:09;;;;;;;6.57;3.60;;;;;;;;;;5028963;28;20120;-66
2022/01/02 09:11:35;;;;;;;6.60;3.78;;;;;;;;;;5028375;28;20048;-66
2022/01/02 09:14:02;;;;;;;8.65;3.67;;;;;;;;;;5030908;28;20084;-66
2022/01/02 09:16:28;;;;;;;8.88;4.07;;;;;;;;;;5028669;28;20129;-65
2022/01/02 09:18:54;;;;;;;10.45;3.85;;;;;;;;;;5029041;28;20041;-66
2022/01/02 09:21:20;;;;;;;9.48;4.03;;;;;;;;;;5028144;28;20041;-66
2022/01/02 09:23:46;;;;;;;8.38;3.33;;;;;;;;;;5021049;28;20056;-65
2022/01/02 09:26:12;;;;;;;12.10;4.32;;;;;;;;;;5026486;28;20038;-66
2022/01/02 09:28:38;;;;;;;9.13;3.95;;;;;;;;;;5025781;28;20280;-66
2022/01/02 09:31:04;;;;;;;9.05;3.95;;;;;;;;;;5022285;28;20037;-66
2022/01/02 09:33:30;;;;;;;8.45;3.83;;;;;;;;;;5027811;28;20064;-66
2022/01/02 09:35:56;;;;;;;11.63;3.90;;;;;;;;;;5024319;28;20047;-66
2022/01/02 09:38:22;;;;;;;8.82;4.18;;;;;;;;;;5026205;28;20041;-66
2022/01/02 09:40:48;;;;;;;9.75;3.70;;;;;;;;;;5027581;28;20571;-66
2022/01/02 09:43:16;;;;;;;8.98;4.18;;;;;;;;;;5022415;28;20120;-64
2022/01/02 09:45:44;;;;;;;10.50;3.47;;;;;;;;;;5027329;28;20045;-65
2022/01/02 09:48:10;;;;;;;9.13;3.53;;;;;;;;;;5028759;28;20033;-66
2022/01/02 09:50:38;;;;;;;8.00;4.00;;;;;;;;;;5028174;28;20048;-65
2022/01/02 09:53:04;;;;;;;7.40;3.20;;;;;;;;;;5030418;28;20041;-65
2022/01/02 09:55:30;;;;;;;8.50;3.70;;;;;;;;;;5031681;28;20120;-65
2022/01/02 09:58:00;;;;;;;7.97;4.00;;;;;;;;;;5031823;28;20171;-65
2022/01/02 10:00:27;;;;;;;6.38;3.90;;;;;;;;;;5032087;28;20506;-65
2022/01/02 10:02:54;;;;;;;13.52;4.18;;;;;;;;;;5030532;28;20041;-65
2022/01/02 10:05:21;;;;;;;7.60;3.83;;;;;;;;;;5032748;28;20037;-65
2022/01/02 10:07:48;;;;;;;8.38;4.55;;;;;;;;;;5031661;28;20041;-65
2022/01/02 10:10:14;;;;;;;7.85;4.05;;;;;;;;;;5029240;28;20042;-64
2022/01/02 10:12:40;;;;;;;7.47;3.80;;;;;;;;;;5024641;28;20076;-64
2022/01/02 10:15:17;;;;;;;7.65;4.10;;;;;;;;;;5022388;28;20116;-64
2022/01/02 10:17:59;;;;;;;8.27;3.67;;;;;;;;;;5021152;28;20081;-64
2022/01/02 10:20:41;;;;;;;11.40;3.97;;;;;;;;;;5028587;28;20037;-66
2022/01/02 10:23:12;;;;;;;8.85;3.85;;;;;;;;;;5026050;28;20056;-65
2022/01/02 10:25:40;;;;;;;7.13;4.32;;;;;;;;;;5032504;28;20121;-65
2022/01/02 10:28:28;;;;;;;13.27;4.10;;;;;;;;;;5032824;28;20080;-65
2022/01/02 10:31:00;;;;;;;7.32;3.90;;;;;;;;;;5031426;28;20506;-64
2022/01/02 10:33:27;;;;;;;9.38;4.00;;;;;;;;;;5029426;28;20152;-64
2022/01/02 10:36:00;;;;;;;8.15;4.20;;;;;;;;;;5029219;28;20051;-64
2022/01/02 10:38:27;;;;;;;9.85;4.65;;;;;;;;;;5033184;28;20037;-64
2022/01/02 10:40:53;;;;;;;8.95;4.25;;;;;;;;;;5028478;28;20037;-64
2022/01/02 10:43:23;;;;;;;9.20;4.53;;;;;;;;;;5031435;28;20041;-64
2022/01/02 10:45:50;;;;;;;9.77;4.50;;;;;;;;;;5031042;28;20041;-64
2022/01/02 10:48:35;;;;;;;9.50;4.95;;;;;;;;;;5032135;28;20707;-65
2022/01/02 10:51:06;;;;;;;10.60;4.80;;;;;;;;;;5026575;28;20038;-64
2022/01/02 10:54:59;;;;;;;9.02;5.05;;;;;;;;;;5162537;27;20398;-75
2022/01/02 10:57:25;;;;;;;9.20;5.03;;;;;;;;;;5157823;27;20062;-79
2022/01/02 10:59:55;;;;;;;8.48;4.50;;;;;;;;;;5156369;27;20061;-80
2022/01/02 11:02:21;;;;;;;12.30;4.63;;;;;;;;;;5156753;27;20031;-80
2022/01/02 11:05:07;;;;;;;8.70;4.82;;;;;;;;;;5136389;27;20111;-80
2022/01/02 11:07:43;;;;;;;10.10;3.92;;;;;;;;;;5142410;27;20512;-78
2022/01/02 11:10:10;;;;;;;10.90;4.82;;;;;;;;;;5145189;27;20034;-79
2022/01/02 11:12:38;;;;;;;11.85;5.30;;;;;;;;;;5143851;27;20122;-76
2022/01/02 11:15:05;;;;;;;8.52;4.65;;;;;;;;;;5130601;27;20073;-79
2022/01/02 11:17:33;;;;;;;9.95;5.70;;;;;;;;;;5133404;27;20069;-79
2022/01/02 11:19:59;;;;;;;10.07;5.03;;;;;;;;;;5137959;27;20449;-79
2022/01/02 11:22:56;;;;;;;12.70;5.93;;;;;;;;;;5136702;27;20047;-78
2022/01/02 11:25:25;;;;;;;10.15;5.10;;;;;;;;;;5120674;27;20442;-80
2022/01/02 11:27:53;;;;;;;9.65;5.60;;;;;;;;;;5138772;27;20032;-79
2022/01/02 11:30:34;;;;;;;8.55;5.53;;;;;;;;;;5135953;27;20172;-79
2022/01/02 11:33:01;;;;;;;;;;;;;;;;;;5136303;27;20496;-78
2022/01/02 11:35:27;;;;;;;8.95;5.55;;;;;;;;;;5148124;27;19919;-78
2022/01/02 11:37:56;;;;;;;9.80;4.88;;;;;;;;;;5145653;27;20058;-78
2022/01/02 11:40:42;;;;;;;10.07;5.25;;;;;;;;;;5135260;27;20500;-78
2022/01/02 11:43:08;;;;;;;13.15;5.63;;;;;;;;;;5137533;27;20035;-78
2022/01/02 11:45:40;;;;;;;10.52;4.80;;;;;;;;;;5142147;27;20031;-78
2022/01/02 11:48:25;;;;;;;7.30;5.10;;;;;;;;;;5149286;27;20031;-78
2022/01/02 11:50:51;;;;;;;8.68;5.07;;;;;;;;;;5144806;27;20053;-78
2022/01/02 11:53:19;;;;;;;7.32;4.28;;;;;;;;;;5131473;27;20043;-78
2022/01/02 11:55:46;;;;;;;9.70;4.72;;;;;;;;;;5146782;27;20084;-76
2022/01/02 11:58:13;;;;;;;9.68;4.57;;;;;;;;;;5146187;27;20039;-77
2022/01/02 12:00:40;;;;;;;7.50;3.75;;;;;;;;;;5139809;27;20054;-77
2022/01/02 12:03:06;;;;;;;12.60;4.93;;;;;;;;;;5136249;27;20080;-77
2022/01/02 12:05:32;;;;;;;8.85;3.97;;;;;;;;;;5134171;27;20047;-77
2022/01/02 12:07:58;;;;;;;8.20;3.90;;;;;;;;;;5126471;27;20114;-77
2022/01/02 12:10:26;;;;;;;10.40;4.60;;;;;;;;;;5125704;27;20373;-76
2022/01/02 12:12:58;;;;;;;9.23;4.25;;;;;;;;;;5128589;27;20067;-77
2022/01/02 12:15:24;;;;;;;7.35;3.95;;;;;;;;;;5122951;27;20039;-77
2022/01/02 12:18:10;;;;;;;9.88;4.25;;;;;;;;;;5130961;27;20039;-77
2022/01/02 12:21:00;;;;;;;6.72;3.97;;;;;;;;;;5122760;27;20039;-77
2022/01/02 12:23:33;;;;;;;10.18;4.00;;;;;;;;;;5121492;27;20039;-77
2022/01/02 12:26:28;;;;;;;9.45;4.55;;;;;;;;;;5115475;27;20047;-77
2022/01/02 12:28:57;;;;;;;10.18;4.28;;;;;;;;;;5100695;27;20070;-78
2022/01/02 12:31:26;;;;;;;10.95;4.60;;;;;;;;;;5118744;27;20488;-80
2022/01/02 12:33:53;;;;;;;9.32;4.28;;;;;;;;;;5124684;27;20392;-76
2022/01/02 12:36:20;;;;;;;8.85;3.83;;;;;;;;;;5121833;27;20673;-77
2022/01/02 12:38:55;;;;;;;10.45;4.55;;;;;;;;;;5114112;28;20477;-77
2022/01/02 12:41:23;;;;;;;8.80;4.30;;;;;;;;;;5116205;27;20046;-76
2022/01/02 12:44:04;;;;;;;11.45;4.45;;;;;;;;;;5121570;27;20039;-76
2022/01/02 12:46:30;;;;;;;;;;;;;;;;;;5122982;27;20043;-76
2022/01/02 12:48:56;;;;;;;9.90;4.25;;;;;;;;;;5122493;27;20006;-76
2022/01/02 12:51:29;;;;;;;8.95;3.88;;;;;;;;;;5122845;27;20240;-76
2022/01/02 12:54:03;;;;;;;12.60;3.88;;;;;;;;;;5115501;27;20082;-76
2022/01/02 12:56:39;;;;;;;9.43;3.70;;;;;;;;;;5125599;27;20035;-76
2022/01/02 12:59:32;;;;;;;6.38;2.97;;;;;;;;;;5114514;27;20038;-76
2022/01/02 13:02:05;;;;;;;9.63;3.10;;;;;;;;;;5116715;27;20112;-76
2022/01/02 13:04:31;;;;;;;11.02;2.90;;;;;;;;;;5126430;27;20081;-77
2022/01/02 13:06:59;;;;;;;8.10;2.33;;;;;;;;;;5122814;27;20059;-74
2022/01/02 13:09:29;;;;;;;7.57;2.38;;;;;;;;;;5119342;27;20039;-75
2022/01/02 13:11:55;;;;;;;8.03;2.33;;;;;;;;;;5120555;27;20046;-76
2022/01/02 13:14:30;;;;;;;9.35;2.60;;;;;;;;;;5124406;27;20038;-76
2022/01/02 13:16:57;;;;;;;5.60;2.03;;;;;;;;;;5097668;27;20040;-75
2022/01/02 13:19:23;;;;;;;11.23;2.55;;;;;;;;;;5120408;27;20099;-75
2022/01/02 13:21:49;;;;;;;5.97;1.98;;;;;;;;;;5127025;27;20036;-76
2022/01/02 13:24:24;;;;;;;13.07;2.60;;;;;;;;;;5119606;27;20039;-76
2022/01/02 13:26:50;;;;;;;8.43;2.75;;;;;;;;;;5112630;28;20046;-76
2022/01/02 13:29:22;;;;;;;7.32;2.03;;;;;;;;;;5112830;28;20047;-76
2022/01/02 13:31:48;;;;;;;7.90;2.22;;;;;;;;;;5116960;27;20040;-76
2022/01/02 13:34:26;;;;;;;9.20;2.45;;;;;;;;;;5118044;27;20042;-76
2022/01/02 13:36:55;;;;;;;9.02;2.15;;;;;;;;;;5113616;27;20039;-76
2022/01/02 13:39:37;;;;;;;7.50;2.03;;;;;;;;;;5131815;27;20039;-76
2022/01/02 13:42:03;;;;;;;11.98;2.50;;;;;;;;;;5126180;27;20404;-75
2022/01/02 13:44:36;;;;;;;12.75;2.50;;;;;;;;;;5121764;27;20067;-76
2022/01/02 13:47:02;;;;;;;8.35;2.30;;;;;;;;;;5120209;27;20117;-76
2022/01/02 13:49:46;;;;;;;6.10;2.03;;;;;;;;;;5116174;27;20202;-76
2022/01/02 13:52:12;;;;;;;10.07;2.30;;;;;;;;;;5115463;27;20070;-76
2022/01/02 13:54:38;;;;;;;8.70;2.60;;;;;;;;;;5121269;27;20050;-76
2022/01/02 13:57:06;;;;;;;11.38;2.08;;;;;;;;;;5129413;27;20063;-76
2022/01/02 13:59:32;;;;;;;12.23;2.30;;;;;;;;;;5113072;28;20120;-76
2022/01/02 14:01:58;;;;;;;12.25;2.42;;;;;;;;;;5117094;27;20062;-75
2022/01/02 14:04:24;;;;;;;11.77;2.63;;;;;;;;;;5117064;27;20043;-76
2022/01/02 14:06:50;;;;;;;12.23;2.47;;;;;;;;;;5115491;27;20114;-75
2022/01/02 14:09:17;;;;;;;13.27;2.70;;;;;;;;;;5132202;27;20381;-76
2022/01/02 14:11:46;;;;;;;12.23;2.92;;;;;;;;;;5125894;27;20479;-76
2022/01/02 14:14:18;;;;;;;8.50;2.15;;;;;;;;;;5120602;27;20047;-76
2022/01/02 14:19:40;;;;;;;12.50;2.78;;;;;;;;;;5118293;27;20552;-76
2022/01/02 14:22:06;;;;;;;14.10;2.97;;;;;;;;;;5120995;27;20031;-76
2022/01/02 14:24:32;;;;;;;8.80;2.17;;;;;;;;;;5123667;27;20055;-76
2022/01/02 14:26:58;;;;;;;14.27;3.03;;;;;;;;;;5119851;27;20039;-76
2022/01/02 14:29:25;;;;;;;12.48;2.75;;;;;;;;;;5132215;27;20467;-76
2022/01/02 14:31:52;;;;;;;12.85;3.03;;;;;;;;;;5126509;27;20111;-75
2022/01/02 14:34:18;;;;;;;12.75;2.55;;;;;;;;;;5120573;27;20500;-76
2022/01/02 14:36:44;;;;;;;12.30;2.60;;;;;;;;;;5121519;27;20039;-77
2022/01/02 14:39:10;;;;;;;13.00;2.83;;;;;;;;;;5118838;27;20100;-74
2022/01/02 14:41:44;;;;;;;8.07;2.90;;;;;;;;;;5119528;27;20062;-73
2022/01/02 14:44:10;;;;;;;13.15;2.80;;;;;;;;;;5119040;27;20045;-75
2022/01/02 14:46:37;;;;;;;8.80;2.78;;;;;;;;;;5118217;27;20163;-75
2022/01/02 14:49:03;;;;;;;13.27;2.97;;;;;;;;;;5117121;27;20043;-73
2022/01/02 14:51:29;;;;;;;8.27;2.60;;;;;;;;;;5120130;28;20046;-74
2022/01/02 14:53:55;;;;;;;14.23;2.90;;;;;;;;;;5115942;28;20039;-74
2022/01/02 14:56:21;;;;;;;15.27;2.50;;;;;;;;;;5121226;28;20027;-74
2022/01/02 14:58:47;;;;;;;8.40;2.47;;;;;;;;;;5129394;28;20046;-74